createdAt,value
2018-06-04T00:02:18.919Z,4.30
2018-06-04T00:04:47.008Z,4.10
2018-06-04T00:07:15.107Z,4.57
2018-06-04T00:09:43.223Z,4.10
2018-06-04T00:12:11.331Z,4.70
2018-06-04T00:14:39.424Z,4.43
2018-06-04T00:17:07.513Z,5.00
2018-06-04T00:19:35.655Z,4.63
2018-06-04T00:22:03.611Z,4.77
2018-06-04T00:24:32.752Z,4.30
2018-06-04T00:27:00.875Z,4.50
2018-06-04T00:29:28.972Z,4.53
2018-06-04T00:31:57.111Z,4.53
2018-06-04T00:34:25.212Z,4.60
2018-06-04T00:36:53.299Z,4.23
2018-06-04T00:39:21.604Z,4.50
2018-06-04T00:41:49.720Z,4.20
2018-06-04T00:44:17.829Z,4.97
2018-06-04T00:46:45.926Z,4.80
2018-06-04T00:49:14.400Z,4.53
2018-06-04T00:51:42.507Z,5.20
2018-06-04T00:54:10.777Z,5.07
2018-06-04T00:56:38.875Z,4.40
2018-06-04T00:59:06.943Z,5.17
2018-06-04T01:01:35.048Z,5.17
2018-06-04T01:04:03.167Z,4.97
2018-06-04T01:06:31.276Z,5.23
2018-06-04T01:08:59.415Z,4.90
2018-06-04T01:11:27.524Z,4.50
2018-06-04T01:13:55.616Z,4.73
2018-06-04T01:16:23.771Z,4.60
2018-06-04T01:18:51.945Z,4.47
2018-06-04T01:21:20.032Z,5.03
2018-06-04T01:23:48.128Z,4.60
2018-06-04T01:26:16.270Z,5.03
2018-06-04T01:28:44.394Z,4.90
2018-06-04T01:31:12.515Z,5.03
2018-06-04T01:33:40.930Z,5.00
2018-06-04T01:36:09.064Z,4.43
2018-06-04T01:38:37.191Z,4.80
2018-06-04T01:41:05.280Z,4.60
2018-06-04T01:43:33.368Z,4.00
2018-06-04T01:46:01.446Z,4.50
2018-06-04T01:48:29.580Z,4.17
2018-06-04T01:50:57.664Z,4.20
2018-06-04T01:53:25.819Z,4.87
2018-06-04T01:55:53.906Z,4.50
2018-06-04T01:58:21.998Z,4.80
2018-06-04T02:00:50.219Z,3.87
2018-06-04T02:03:18.319Z,4.53
2018-06-04T02:05:46.437Z,4.77
2018-06-04T02:08:14.536Z,4.23
2018-06-04T02:10:42.608Z,4.20
2018-06-04T02:13:10.555Z,4.10
2018-06-04T02:15:38.691Z,4.47
2018-06-04T02:18:06.797Z,4.17
2018-06-04T02:20:34.895Z,5.10
2018-06-04T02:23:02.998Z,4.60
2018-06-04T02:25:31.080Z,4.97
2018-06-04T02:27:59.163Z,4.87
2018-06-04T02:30:27.270Z,5.17
2018-06-04T02:32:55.367Z,4.83
2018-06-04T02:35:23.447Z,5.50
2018-06-04T02:37:51.554Z,5.83
2018-06-04T02:40:19.655Z,5.53
2018-06-04T02:42:47.881Z,6.13
2018-06-04T02:45:16.175Z,5.80
2018-06-04T02:47:44.237Z,7.00
2018-06-04T02:50:12.380Z,6.77
2018-06-04T02:52:40.534Z,6.47
2018-06-04T02:55:08.661Z,7.13
2018-06-04T02:57:36.787Z,8.57
2018-06-04T03:00:05.027Z,6.90
2018-06-04T03:02:33.135Z,7.23
2018-06-04T03:05:01.249Z,7.67
2018-06-04T03:07:29.333Z,8.60
2018-06-04T03:09:57.464Z,8.20
2018-06-04T03:12:25.567Z,7.90
2018-06-04T03:14:53.651Z,8.17
2018-06-04T03:17:21.769Z,7.77
2018-06-04T03:19:49.866Z,7.27
2018-06-04T03:22:17.935Z,7.90
2018-06-04T03:24:46.020Z,8.23
2018-06-04T03:27:14.095Z,7.97
2018-06-04T03:29:42.182Z,8.40
2018-06-04T03:32:10.308Z,7.90
2018-06-04T03:34:38.420Z,8.40
2018-06-04T03:37:06.492Z,8.60
2018-06-04T03:39:34.634Z,9.60
2018-06-04T03:42:02.760Z,8.20
2018-06-04T03:44:30.866Z,8.57
2018-06-04T03:46:58.964Z,9.10
2018-06-04T03:49:27.063Z,8.23
2018-06-04T03:51:55.152Z,7.93
2018-06-04T03:54:23.302Z,8.07
2018-06-04T03:56:51.375Z,8.00
2018-06-04T03:59:19.491Z,7.73
2018-06-04T04:01:47.637Z,8.40
2018-06-04T04:04:15.723Z,7.00
2018-06-04T04:06:43.843Z,8.00
2018-06-04T04:09:11.800Z,8.90
2018-06-04T04:11:39.936Z,7.80
2018-06-04T04:14:08.034Z,7.87
2018-06-04T04:16:38.115Z,7.83
2018-06-04T04:19:06.367Z,8.77
2018-06-04T04:21:34.483Z,7.07
2018-06-04T04:24:02.579Z,6.57
2018-06-04T04:26:30.663Z,6.23
2018-06-04T04:28:58.787Z,6.10
2018-06-04T04:31:27.561Z,6.83
2018-06-04T04:33:56.464Z,7.93
2018-06-04T04:36:24.556Z,7.53
2018-06-04T04:38:53.736Z,9.03
2018-06-04T04:41:22.245Z,6.23
2018-06-04T04:43:50.331Z,8.43
2018-06-04T04:46:19.157Z,6.67
2018-06-04T04:48:47.124Z,6.03
2018-06-04T04:51:15.218Z,6.33
2018-06-04T04:53:43.848Z,6.57
2018-06-04T04:56:11.950Z,5.83
2018-06-04T04:58:40.136Z,6.63
2018-06-04T05:01:08.217Z,6.63
2018-06-04T05:03:36.315Z,6.13
2018-06-04T05:06:04.771Z,9.13
2018-06-04T05:08:32.991Z,7.17
2018-06-04T05:11:01.769Z,6.60
2018-06-04T05:13:29.872Z,6.83
2018-06-04T05:15:58.324Z,7.13
2018-06-04T05:18:26.461Z,7.53
2018-06-04T05:20:54.533Z,8.10
2018-06-04T05:23:22.660Z,8.37
2018-06-04T05:25:50.741Z,8.53
2018-06-04T05:28:18.812Z,8.17
2018-06-04T05:30:47.093Z,7.57
2018-06-04T05:33:15.199Z,7.10
2018-06-04T05:35:43.608Z,6.87
2018-06-04T05:38:11.804Z,7.70
2018-06-04T05:40:41.798Z,7.00
2018-06-04T05:43:09.907Z,7.80
2018-06-04T05:45:38.016Z,7.63
2018-06-04T05:48:06.150Z,7.37
2018-06-04T05:50:34.235Z,7.30
2018-06-04T05:53:02.981Z,8.87
2018-06-04T05:55:31.064Z,7.07
2018-06-04T05:57:59.152Z,7.40
2018-06-04T06:00:27.237Z,7.10
2018-06-04T06:02:56.183Z,7.13
2018-06-04T06:05:24.881Z,7.30
2018-06-04T06:07:58.573Z,6.40
2018-06-04T06:10:26.723Z,6.47
2018-06-04T06:12:54.795Z,6.80
2018-06-04T06:15:22.941Z,6.73
2018-06-04T06:17:51.020Z,6.63
2018-06-04T06:20:19.147Z,6.67
2018-06-04T06:22:47.336Z,5.97
2018-06-04T06:25:15.431Z,7.03
2018-06-04T06:27:44.435Z,6.60
2018-06-04T06:30:13.399Z,6.70
2018-06-04T06:32:43.044Z,6.50
2018-06-04T06:35:11.146Z,7.13
2018-06-04T06:37:39.240Z,6.63
2018-06-04T06:40:10.817Z,6.67
2018-06-04T06:42:41.016Z,6.13
2018-06-04T06:45:09.315Z,6.63
2018-06-04T06:47:38.008Z,6.63
2018-06-04T06:50:06.107Z,6.63
2018-06-04T06:52:34.205Z,6.90
2018-06-04T06:55:02.355Z,6.90
2018-06-04T06:57:30.459Z,6.40
2018-06-04T06:59:58.676Z,6.60
2018-06-04T07:02:26.820Z,6.27
2018-06-04T07:04:54.915Z,6.30
2018-06-04T07:07:23.107Z,5.53
2018-06-04T07:09:51.209Z,5.97
2018-06-04T07:12:19.283Z,6.80
2018-06-04T07:14:47.373Z,6.40
2018-06-04T07:17:15.447Z,5.97
2018-06-04T07:19:43.571Z,6.80
2018-06-04T07:22:11.670Z,6.43
2018-06-04T07:24:39.783Z,5.37
2018-06-04T07:27:08.067Z,6.20
2018-06-04T07:29:36.189Z,6.60
2018-06-04T07:32:05.416Z,6.03
2018-06-04T07:34:33.523Z,6.57
2018-06-04T07:37:01.636Z,5.90
2018-06-04T07:39:30.375Z,6.53
2018-06-04T07:41:59.123Z,6.60
2018-06-04T07:44:28.047Z,6.47
2018-06-04T07:46:56.154Z,6.70
2018-06-04T07:49:24.429Z,6.03
2018-06-04T07:51:52.523Z,6.60
2018-06-04T07:54:20.615Z,5.80
2018-06-04T07:56:49.621Z,6.70
2018-06-04T07:59:17.839Z,6.17
2018-06-04T08:01:45.987Z,6.27
2018-06-04T08:04:14.059Z,5.83
2018-06-04T08:06:42.178Z,6.37
2018-06-04T08:09:10.302Z,6.20
2018-06-04T08:11:38.407Z,6.00
2018-06-04T08:14:06.645Z,6.10
2018-06-04T08:16:34.743Z,6.20
2018-06-04T08:19:03.054Z,5.50
2018-06-04T08:21:31.248Z,5.87
2018-06-04T08:23:59.388Z,6.57
2018-06-04T08:26:27.488Z,5.37
2018-06-04T08:28:55.752Z,5.83
2018-06-04T08:31:24.385Z,5.40
2018-06-04T08:33:52.600Z,5.57
2018-06-04T08:36:20.755Z,5.50
2018-06-04T08:38:49.533Z,5.80
2018-06-04T08:41:17.788Z,6.00
2018-06-04T08:43:45.905Z,5.33
2018-06-04T08:46:14.212Z,6.03
2018-06-04T08:48:42.329Z,5.40
2018-06-04T08:51:10.457Z,5.50
2018-06-04T08:53:40.040Z,5.70
2018-06-04T08:56:08.269Z,5.33
2018-06-04T08:58:36.401Z,5.33
2018-06-04T09:01:04.505Z,5.53
2018-06-04T09:03:32.581Z,5.23
2018-06-04T09:06:00.859Z,5.37
2018-06-04T09:08:29.124Z,5.07
2018-06-04T09:10:58.064Z,5.87
2018-06-04T09:13:26.156Z,5.87
2018-06-04T09:15:54.255Z,5.50
2018-06-04T09:18:22.551Z,5.27
2018-06-04T09:20:50.663Z,5.90
2018-06-04T09:23:18.914Z,5.43
2018-06-04T09:25:46.875Z,6.13
2018-06-04T09:28:14.983Z,5.47
2018-06-04T09:30:43.065Z,6.13
2018-06-04T09:33:11.171Z,7.07
2018-06-04T09:35:39.538Z,6.40
2018-06-04T09:38:07.653Z,5.60
2018-06-04T09:40:37.559Z,6.70
2018-06-04T09:43:06.387Z,6.70
2018-06-04T09:45:34.587Z,7.37
2018-06-04T09:48:02.758Z,6.93
2018-06-04T09:50:31.065Z,6.70
2018-06-04T09:52:59.211Z,6.60
2018-06-04T09:55:29.274Z,5.30
2018-06-04T09:58:00.516Z,5.87
2018-06-04T10:00:35.212Z,5.20
2018-06-04T10:03:04.199Z,4.90
2018-06-04T10:05:32.780Z,4.70
2018-06-04T10:08:00.922Z,5.07
2018-06-04T10:10:29.154Z,4.50
2018-06-04T10:12:57.333Z,4.40
2018-06-04T10:15:25.452Z,4.20
2018-06-04T10:17:53.562Z,4.30
2018-06-04T10:20:21.745Z,3.83
2018-06-04T10:22:49.890Z,3.97
2018-06-04T10:25:18.001Z,4.07
2018-06-04T10:27:46.253Z,3.83
2018-06-04T10:30:14.644Z,4.30
2018-06-04T10:32:42.760Z,4.10
2018-06-04T10:35:10.923Z,3.70
2018-06-04T10:37:39.099Z,3.63
2018-06-04T10:40:07.229Z,4.10
2018-06-04T10:42:35.360Z,3.43
2018-06-04T10:45:03.487Z,3.60
2018-06-04T10:47:31.614Z,3.27
2018-06-04T10:49:59.843Z,2.97
2018-06-04T10:52:27.953Z,3.40
2018-06-04T10:54:55.894Z,3.53
2018-06-04T10:57:24.016Z,3.40
2018-06-04T10:59:52.439Z,3.20
2018-06-04T11:02:20.575Z,4.77
2018-06-04T11:04:48.955Z,3.73
2018-06-04T11:07:17.119Z,4.23
2018-06-04T11:09:45.346Z,4.40
2018-06-04T11:12:13.442Z,4.33
2018-06-04T11:14:41.549Z,4.80
2018-06-04T11:17:09.628Z,4.67
2018-06-04T11:19:37.738Z,4.70
2018-06-04T11:22:05.872Z,5.10
2018-06-04T11:24:33.972Z,5.30
2018-06-04T11:27:02.098Z,5.20
2018-06-04T11:29:30.194Z,4.60
2018-06-04T11:31:58.309Z,4.57
2018-06-04T11:34:26.400Z,4.60
2018-06-04T11:36:54.521Z,4.20
2018-06-04T11:39:22.646Z,3.70
2018-06-04T11:41:50.771Z,3.63
2018-06-04T11:44:20.510Z,3.70
2018-06-04T11:46:48.660Z,3.67
2018-06-04T11:49:18.086Z,3.50
2018-06-04T11:51:46.216Z,4.40
2018-06-04T11:54:14.353Z,4.20
2018-06-04T11:56:42.336Z,4.07
2018-06-04T11:59:10.461Z,3.77
2018-06-04T12:01:38.598Z,3.60
2018-06-04T12:04:06.547Z,3.00
2018-06-04T12:06:34.654Z,3.53
2018-06-04T12:09:02.825Z,3.77
2018-06-04T12:11:31.607Z,4.23
2018-06-04T12:13:59.488Z,3.70
2018-06-04T12:16:27.584Z,3.57
2018-06-04T12:18:55.731Z,3.40
2018-06-04T12:21:23.983Z,3.93
2018-06-04T12:23:52.096Z,3.63
2018-06-04T12:26:20.233Z,3.50
2018-06-04T12:28:48.501Z,3.17
2018-06-04T12:31:17.698Z,3.20
2018-06-04T12:33:45.945Z,3.37
2018-06-04T12:36:14.081Z,3.60
2018-06-04T12:38:42.468Z,3.73
2018-06-04T12:41:12.807Z,3.87
2018-06-04T12:43:42.164Z,3.93
2018-06-04T12:46:11.994Z,3.17
2018-06-04T12:48:40.819Z,3.40
2018-06-04T12:51:08.939Z,3.43
2018-06-04T12:53:36.903Z,3.17
2018-06-04T12:56:05.062Z,3.77
2018-06-04T12:58:33.172Z,3.00
2018-06-04T13:01:01.263Z,3.33
2018-06-04T13:03:29.419Z,3.47
2018-06-04T13:05:57.660Z,3.57
2018-06-04T13:08:25.812Z,4.27
2018-06-04T13:10:54.170Z,2.93
2018-06-04T13:13:22.469Z,3.27
2018-06-04T13:15:50.569Z,2.93
2018-06-04T13:18:18.667Z,3.30
2018-06-04T13:20:47.032Z,3.63
2018-06-04T13:23:15.161Z,3.13
2018-06-04T13:25:43.286Z,3.47
2018-06-04T13:28:11.407Z,2.63
2018-06-04T13:30:39.604Z,3.13
2018-06-04T13:33:07.715Z,3.27
2018-06-04T13:35:35.848Z,3.03
2018-06-04T13:38:03.965Z,3.00
2018-06-04T13:40:32.065Z,3.23
2018-06-04T13:43:00.340Z,3.00
2018-06-04T13:45:28.461Z,2.77
2018-06-04T13:47:56.648Z,3.00
2018-06-04T13:50:24.833Z,2.70
2018-06-04T13:52:53.156Z,2.87
2018-06-04T13:55:21.279Z,2.83
2018-06-04T13:57:49.232Z,2.80
2018-06-04T14:00:17.400Z,3.00
2018-06-04T14:02:45.588Z,2.83
2018-06-04T14:05:13.669Z,2.53
2018-06-04T14:07:41.838Z,2.77
2018-06-04T14:10:10.025Z,3.17
2018-06-04T14:12:38.148Z,2.70
2018-06-04T14:15:06.257Z,3.43
2018-06-04T14:17:34.351Z,3.33
2018-06-04T14:20:02.640Z,2.93
2018-06-04T14:22:30.968Z,3.00
2018-06-04T14:24:59.076Z,2.70
2018-06-04T14:27:27.772Z,3.40
2018-06-04T14:29:55.933Z,2.80
2018-06-04T14:32:24.082Z,3.00
2018-06-04T14:34:52.244Z,2.60
2018-06-04T14:37:20.532Z,2.57
2018-06-04T14:39:48.780Z,2.77
2018-06-04T14:42:16.992Z,2.73
2018-06-04T14:44:45.156Z,2.80
2018-06-04T14:47:13.698Z,2.50
2018-06-04T14:49:41.925Z,3.17
2018-06-04T14:52:10.187Z,2.70
2018-06-04T14:54:38.712Z,2.90
2018-06-04T14:57:06.824Z,2.70
2018-06-04T14:59:34.920Z,2.40
2018-06-04T15:02:03.109Z,2.73
2018-06-04T15:04:31.243Z,2.60
2018-06-04T15:06:59.401Z,2.50
2018-06-04T15:09:27.501Z,3.10
2018-06-04T15:11:55.603Z,2.70
2018-06-04T15:14:23.704Z,2.40
2018-06-04T15:16:51.837Z,3.37
2018-06-04T15:19:19.995Z,2.80
2018-06-04T15:21:48.095Z,2.50
2018-06-04T15:24:16.289Z,2.60
2018-06-04T15:26:44.466Z,2.50
2018-06-04T15:29:12.579Z,2.83
2018-06-04T15:31:44.755Z,2.53
2018-06-04T15:34:13.597Z,2.40
2018-06-04T15:36:41.725Z,2.70
2018-06-04T15:39:10.061Z,2.60
2018-06-04T15:41:40.547Z,2.37
2018-06-04T15:44:08.695Z,2.70
2018-06-04T15:46:36.816Z,3.00
2018-06-04T15:49:07.536Z,2.40
2018-06-04T15:51:35.649Z,2.40
2018-06-04T15:54:03.812Z,2.50
2018-06-04T15:56:31.784Z,2.03
2018-06-04T15:58:59.972Z,2.90
2018-06-04T16:01:28.069Z,2.90
2018-06-04T16:03:56.196Z,2.60
2018-06-04T16:06:24.364Z,2.67
2018-06-04T16:08:52.476Z,2.87
2018-06-04T16:11:20.651Z,2.57
2018-06-04T16:13:48.760Z,2.53
2018-06-04T16:16:16.879Z,2.83
2018-06-04T16:18:44.985Z,2.57
2018-06-04T16:21:13.144Z,2.50
2018-06-04T16:23:42.033Z,3.07
2018-06-04T16:26:10.166Z,2.53
2018-06-04T16:28:38.278Z,3.20
2018-06-04T16:31:09.318Z,2.53
2018-06-04T16:33:37.604Z,2.60
2018-06-04T16:36:06.646Z,2.80
2018-06-04T16:38:36.091Z,3.20
2018-06-04T16:43:51.000Z,2.77
2018-06-04T16:46:19.136Z,2.80
2018-06-04T16:48:47.094Z,3.20
2018-06-04T16:51:15.226Z,2.50
2018-06-04T16:53:43.386Z,2.97
2018-06-04T16:56:11.479Z,2.97
2018-06-04T16:58:39.597Z,2.73
2018-06-04T17:01:08.236Z,2.90
2018-06-04T17:03:36.556Z,2.57
2018-06-04T17:06:04.535Z,2.80
2018-06-04T17:08:32.646Z,2.70
2018-06-04T17:11:00.773Z,2.80
2018-06-04T17:13:29.199Z,2.80
2018-06-04T17:15:57.348Z,2.80
2018-06-04T17:18:25.447Z,2.60
2018-06-04T17:20:53.568Z,3.30
2018-06-04T17:23:21.663Z,3.80
2018-06-04T17:25:49.763Z,3.43
2018-06-04T17:28:17.869Z,3.17
2018-06-04T17:30:45.983Z,3.40
2018-06-04T17:33:14.087Z,2.97
2018-06-04T17:35:42.212Z,2.80
2018-06-04T17:38:10.296Z,3.23
2018-06-04T17:40:38.686Z,4.60
2018-06-04T17:43:10.705Z,3.70
2018-06-04T17:45:38.823Z,3.93
2018-06-04T17:48:06.936Z,8.30
2018-06-04T17:50:35.047Z,3.90
2018-06-04T17:53:03.148Z,4.53
2018-06-04T17:55:31.239Z,4.37
2018-06-04T17:57:59.347Z,4.60
2018-06-04T18:00:27.448Z,4.23
2018-06-04T18:02:55.544Z,4.57
2018-06-04T18:05:23.669Z,4.07
2018-06-04T18:07:51.812Z,4.40
2018-06-04T18:10:19.933Z,4.57
2018-06-04T18:12:48.021Z,3.20
2018-06-04T18:15:16.138Z,4.20
2018-06-04T18:17:44.273Z,4.23
2018-06-04T18:20:12.148Z,4.03
2018-06-04T18:22:40.667Z,4.00
2018-06-04T18:25:08.781Z,4.10
2018-06-04T18:27:37.207Z,4.40
2018-06-04T18:30:05.445Z,4.80
2018-06-04T18:32:33.535Z,4.80
2018-06-04T18:35:01.638Z,5.20
2018-06-04T18:37:29.747Z,4.97
2018-06-04T18:39:58.895Z,4.80
2018-06-04T18:42:27.879Z,4.33
2018-06-04T18:44:55.979Z,4.57
2018-06-04T18:47:24.077Z,4.77
2018-06-04T18:49:52.159Z,4.90
2018-06-04T18:52:20.239Z,4.57
2018-06-04T18:54:50.223Z,4.23
2018-06-04T18:57:18.316Z,4.83
2018-06-04T18:59:46.386Z,5.33
2018-06-04T19:02:14.607Z,5.13
2018-06-04T19:04:42.697Z,9.17
2018-06-04T19:07:10.781Z,11.93
2018-06-04T19:09:38.876Z,16.40
2018-06-04T19:12:07.015Z,15.20
2018-06-04T19:14:35.351Z,8.47
2018-06-04T19:17:03.658Z,6.10
2018-06-04T19:19:31.731Z,6.33
2018-06-04T19:21:59.835Z,6.73
2018-06-04T19:24:27.958Z,5.80
2018-06-04T19:26:59.064Z,5.73
2018-06-04T19:29:27.120Z,5.90
2018-06-04T19:31:55.214Z,5.87
2018-06-04T19:34:27.424Z,5.70
2018-06-04T19:36:55.354Z,5.63
2018-06-04T19:39:24.269Z,5.77
2018-06-04T19:41:52.349Z,5.67
2018-06-04T19:44:20.438Z,6.00
2018-06-04T19:46:48.519Z,5.17
2018-06-04T19:49:16.599Z,5.97
2018-06-04T19:51:44.875Z,5.53
2018-06-04T19:54:12.948Z,5.40
2018-06-04T19:56:41.096Z,5.83
2018-06-04T19:59:09.196Z,5.93
2018-06-04T20:01:37.271Z,4.87
2018-06-04T20:04:05.617Z,5.37
2018-06-04T20:06:33.697Z,5.57
2018-06-04T20:09:02.719Z,6.47
2018-06-04T20:11:30.838Z,5.93
2018-06-04T20:13:59.659Z,5.10
2018-06-04T20:16:27.795Z,5.13
2018-06-04T20:18:55.944Z,5.57
2018-06-04T20:21:24.075Z,5.40
2018-06-04T20:23:52.342Z,6.13
2018-06-04T20:26:20.677Z,5.43
2018-06-04T20:28:48.787Z,5.13
2018-06-04T20:31:16.911Z,6.23
2018-06-04T20:33:45.072Z,5.60
2018-06-04T20:36:13.157Z,5.50
2018-06-04T20:38:41.326Z,5.00
2018-06-04T20:41:09.418Z,5.80
2018-06-04T20:43:37.528Z,5.40
2018-06-04T20:46:05.701Z,5.30
2018-06-04T20:48:33.806Z,5.30
2018-06-04T20:51:01.940Z,5.47
2018-06-04T20:53:30.043Z,5.80
2018-06-04T20:55:57.997Z,5.53
2018-06-04T20:58:26.186Z,5.83
2018-06-04T21:00:54.302Z,6.03
2018-06-04T21:03:22.410Z,6.10
2018-06-04T21:05:50.531Z,6.23
2018-06-04T21:08:18.643Z,5.13
2018-06-04T21:10:46.738Z,6.23
2018-06-04T21:13:14.888Z,5.50
2018-06-04T21:15:43.007Z,6.00
2018-06-04T21:18:11.150Z,5.77
2018-06-04T21:20:39.295Z,5.47
2018-06-04T21:23:07.513Z,5.87
2018-06-04T21:25:35.607Z,5.97
2018-06-04T21:28:03.745Z,5.80
2018-06-04T21:30:31.871Z,5.67
2018-06-04T21:32:59.898Z,5.70
2018-06-04T21:35:28.000Z,5.67
2018-06-04T21:37:56.097Z,6.20
2018-06-04T21:40:24.179Z,5.20
2018-06-04T21:42:52.267Z,5.77
2018-06-04T21:45:20.355Z,6.47
2018-06-04T21:47:48.431Z,6.03
2018-06-04T21:50:16.525Z,6.50
2018-06-04T21:52:44.598Z,6.33
2018-06-04T21:55:12.687Z,5.90
2018-06-04T21:57:40.760Z,6.27
2018-06-04T22:00:09.763Z,6.33
2018-06-04T22:02:38.726Z,6.43
2018-06-04T22:05:06.827Z,6.33
2018-06-04T22:07:34.919Z,5.90
2018-06-04T22:10:03.048Z,6.57
2018-06-04T22:12:30.985Z,6.60
2018-06-04T22:14:59.083Z,6.03
2018-06-04T22:17:27.171Z,6.10
2018-06-04T22:19:55.262Z,5.73
2018-06-04T22:22:23.319Z,6.47
2018-06-04T22:24:51.394Z,5.70
2018-06-04T22:27:19.471Z,5.83
2018-06-04T22:29:47.552Z,6.83
2018-06-04T22:32:15.626Z,6.17
2018-06-04T22:34:43.702Z,6.50
2018-06-04T22:37:11.782Z,7.53
2018-06-04T22:39:39.888Z,6.20
2018-06-04T22:42:07.959Z,7.00
2018-06-04T22:44:36.067Z,7.67
2018-06-04T22:47:04.000Z,7.53
2018-06-04T22:49:32.083Z,8.00
2018-06-04T22:52:00.176Z,6.53
2018-06-04T22:54:28.281Z,8.27
2018-06-04T22:56:56.352Z,8.30
2018-06-04T22:59:24.436Z,7.20
2018-06-04T23:01:52.515Z,8.13
2018-06-04T23:04:20.635Z,6.50
2018-06-04T23:06:48.739Z,6.37
2018-06-04T23:09:17.028Z,7.33
2018-06-04T23:11:45.087Z,6.50
2018-06-04T23:14:13.177Z,6.73
2018-06-04T23:16:41.235Z,6.20
2018-06-04T23:19:09.411Z,8.07
2018-06-04T23:21:37.474Z,7.00
2018-06-04T23:24:05.581Z,7.40
2018-06-04T23:26:33.643Z,6.87
2018-06-04T23:29:01.770Z,6.30
2018-06-04T23:31:29.849Z,5.80
2018-06-04T23:33:57.914Z,6.77
2018-06-04T23:36:25.989Z,6.50
2018-06-04T23:38:54.059Z,6.77
2018-06-04T23:41:22.171Z,6.00
2018-06-04T23:43:50.238Z,6.73
2018-06-04T23:46:18.321Z,5.87
2018-06-04T23:48:46.391Z,6.40
2018-06-04T23:51:14.503Z,5.97
2018-06-04T23:53:42.610Z,5.77
2018-06-04T23:56:10.700Z,5.67
2018-06-04T23:58:38.794Z,5.73
